Hawaii METAR Reports

 

PHOG - Kahului, Hawaii, USA
Distance from station: WNW 8mi, 13km
Updated: Wed, 20-Jun-2018 5:54pm HST
Partly Cloudy
Partly Cloudy
 Wind from ENE
Wind: ENE 16 mph , 26 km/h, Gust: 26 mph , 43 km/h
Temperature: 82°F , 28°C
Heat Index: 86°F , 30°C
Dew Point: 70°F , 21°C
Humidity: 66%
Barometer: 29.94 inHg , 1013.9 hPa
Clouds: Partly Cloudy
Visibility: 10 miles , 16 km
Cloud details: Few Clouds 4000 ft
Partly Cloudy 5000 ft
2018/06/21 03:54 PHOG 210354Z 06014G23KT 10SM FEW040 SCT050 28/21 A2994 RMK AO2 PK WND 06026/0257 SLP142 T02780206
PHJH - Lahaina/West Mau, Hawaii, USA
Distance from station: WNW 24mi, 39km
Updated: Wed, 20-Jun-2018 5:45pm HST
Partly Cloudy
Partly Cloudy
 Wind from NE
Wind: NE 15 mph , 24 km/h, Gust: 21 mph , 33 km/h
Temperature: 81°F , 27°C
Heat Index: 83°F , 28°C
Dew Point: 66°F , 19°C
Humidity: 62%
Barometer: 29.97 inHg , 1014.9 hPa
Clouds: Partly Cloudy
Visibility: 15 miles , 24 km
Cloud details: Few Clouds 3000 ft
Partly Cloudy 4500 ft
2018/06/21 03:45 PHJH 210345Z 04013G18KT 15SM FEW030 SCT045 27/19 A2997 RMK LAST
 
PHNY - Lanai City Airpo, Hawaii, USA
Distance from station: W 40mi, 65km
Updated: Wed, 20-Jun-2018 5:56pm HST
Overcast
Overcast
 Wind from NE
Wind: NE 15 mph , 24 km/h
Temperature: 73°F , 23°C
Dew Point: 66°F , 19°C
Humidity: 78%
Barometer: 30.03 inHg , 1016.9 hPa
Clouds: Overcast
Visibility: 10 miles , 16 km
Cloud details: Mostly Cloudy 1800 ft
Mostly Cloudy 2200 ft
Overcast 3500 ft
2018/06/21 03:56 PHNY 210356Z AUTO 05013KT 10SM BKN018 BKN022 OVC035 23/19 A3003 RMK AO2 WSHFT 0333 SLP148 T02330194
PHMK - Molokai, Hawaii, USA
Distance from station: WNW 55mi, 88km
Updated: Wed, 20-Jun-2018 5:54pm HST
Clear
Clear
 Wind from NNE
Wind: NNE 8 mph , 13 km/h
Temperature: 84°F , 29°C
Heat Index: 87°F , 31°C
Dew Point: 68°F , 20°C
Humidity: 58%
Barometer: 29.97 inHg , 1014.9 hPa
Clouds: Clear
Visibility: 10 miles , 16 km
2018/06/21 03:54 PHMK 210354Z 03007KT 10SM CLR 29/20 A2997 RMK AO2 SLP151 T02890200
 
PHKO - Kailua/Kona, Hawaii, USA
Distance from station: SSE 79mi, 128km
Updated: Wed, 20-Jun-2018 5:53pm HST
Overcast
Overcast
 Wind from SW
Wind: SW 6 mph , 9 km/h
Temperature: 81°F , 27°C
Heat Index: 84°F , 29°C
Dew Point: 68°F , 20°C
Humidity: 66%
Barometer: 29.94 inHg , 1013.9 hPa
Clouds: Overcast
Visibility: 8 miles , 13 km
Cloud details: Few Clouds 4700 ft
Overcast 6000 ft
2018/06/21 03:53 PHKO 210353Z 23005KT 8SM FEW047 OVC060 27/20 A2994 RMK AO2 SLP139 T02720200
PHSF - Bradshaw Aaf/Haw, Hawaii, USA
Distance from station: SE 90mi, 145km
Updated: Wed, 20-Jun-2018 5:56pm HST

 Wind from W
Wind: W 6 mph , 9 km/h
Visibility: 6 miles , 10 km
2018/06/21 03:56 PHSF 210356Z AUTO 26005KT 6SM M CLR 18/11 A3029 RMK AO2 SLP148 WND DATA ESTMD T01800114 $
 
PHNG - Kaneohe Mcas, Hawaii, USA
Distance from station: WNW 102mi, 164km
Updated: Wed, 20-Jun-2018 5:57pm HST
Mostly Cloudy
Mostly Cloudy
 Wind from E
Wind: E 8 mph , 13 km/h
Temperature: 82°F , 28°C
Heat Index: 86°F , 30°C
Dew Point: 72°F , 22°C
Humidity: 70%
Barometer: 29.95 inHg , 1014.2 hPa
Clouds: Mostly Cloudy
Visibility: 10 miles , 16 km
Cloud details: Mostly Cloudy 2400 ft
2018/06/21 03:57 PHNG 210357Z 09007KT 060V130 10SM BKN024 28/22 A2995 RMK AO2 SLP136 T02780222 $
PHNL - Honolulu, Hawaii, USA
Distance from station: WNW 108mi, 174km
Updated: Wed, 20-Jun-2018 5:53pm HST
Partly Cloudy
Partly Cloudy
 Wind from ENE
Wind: ENE 10 mph , 17 km/h
Temperature: 88°F , 31°C
Heat Index: 93°F , 34°C
Dew Point: 70°F , 21°C
Humidity: 55%
Barometer: 29.96 inHg , 1014.6 hPa
Clouds: Partly Cloudy
Visibility: 10 miles , 16 km
Cloud details: Few Clouds 2500 ft
Few Clouds 3900 ft
Partly Cloudy 4800 ft
2018/06/21 03:53 PHNL 210353Z 06009KT 10SM FEW025 FEW039 SCT048 31/21 A2996 RMK AO2 SLP143 T03060211
 
PHTO - Hilo, Hawaii, USA
Distance from station: SE 114mi, 183km
Updated: Wed, 20-Jun-2018 5:53pm HST
Partly Cloudy
Partly Cloudy
 Wind from ESE
Wind: ESE 10 mph , 17 km/h
Temperature: 79°F , 26°C
Dew Point: 70°F , 21°C
Humidity: 74%
Barometer: 29.99 inHg , 1015.6 hPa
Clouds: Partly Cloudy
Visibility: 10 miles , 16 km
Cloud details: Partly Cloudy 5500 ft
2018/06/21 03:53 PHTO 210353Z 12009KT 10SM SCT055 26/21 A2999 RMK AO2 SLP153 T02610211
PHJR - Kalaeloa, Hawaii, USA
Distance from station: WNW 117mi, 189km
Updated: Wed, 20-Jun-2018 5:53pm HST
Clear
Clear
 Wind from varies
Wind: varies 6 mph , 9 km/h
Temperature: 84°F , 29°C
Heat Index: 85°F , 29°C
Dew Point: 64°F , 18°C
Humidity: 51%
Barometer: 29.96 inHg , 1014.6 hPa
Clouds: Clear
Visibility: 10 miles , 16 km
2018/06/21 03:53 PHJR 210353Z VRB05KT 10SM CLR 29/18 A2996 RMK AO2 SLP152 T02940183
 
PHHI - Wheeler Afb/Oahu, Hawaii, USA
Distance from station: WNW 120mi, 193km
Updated: Wed, 20-Jun-2018 5:56pm HST
Clear
Clear
 Wind from E
Wind: E 12 mph , 19 km/h
Temperature: 81°F , 27°C
Heat Index: 83°F , 28°C
Dew Point: 64°F , 18°C
Humidity: 58%
Barometer: 29.97 inHg , 1014.9 hPa
Clouds: Clear
Visibility: 10 miles , 16 km
2018/06/21 03:56 PHHI 210356Z AUTO 08010KT 10SM CLR 27/18 A2997 RMK AO2 SLP138 T02740181 $
PHLI - Lihue/Kauai Is, Hawaii, USA
Distance from station: WNW 209mi, 336km
Updated: Wed, 20-Jun-2018 5:53pm HST
Partly Cloudy
Partly Cloudy
 Wind from NE
Wind: NE 9 mph , 15 km/h
Temperature: 81°F , 27°C
Heat Index: 85°F , 29°C
Dew Point: 72°F , 22°C
Humidity: 74%
Barometer: 29.99 inHg , 1015.6 hPa
Clouds: Partly Cloudy
Visibility: 10 miles , 16 km
Cloud details: Partly Cloudy 2000 ft
2018/06/21 03:53 PHLI 210353Z 05008KT 10SM SCT020 27/22 A2999 RMK AO2 SLP151 T02670222
 
PHBK - Barking Sands/Ka, Hawaii, USA
Distance from station: WNW 237mi, 382km
Updated: Wed, 20-Jun-2018 5:56pm HST
Overcast
Overcast
 Wind from WSW
Wind: WSW 9 mph , 15 km/h
Temperature: 81°F , 27°C
Heat Index: 86°F , 30°C
Dew Point: 73°F , 23°C
Humidity: 79%
Barometer: 29.95 inHg , 1014.2 hPa
Clouds: Overcast
Visibility: 10 miles , 16 km
Cloud details: Overcast 5000 ft
2018/06/21 03:56 PHBK 210356Z AUTO 25008KT 10SM OVC050 27/23 A2995 RMK AO2 SLP144 T02670228